TimeCDT,TemperatureF,Dew PointF,Humidity,Sea Level PressureIn,VisibilityMPH,Wind Direction,Wind SpeedMPH,Gust SpeedMPH,PrecipitationIn,Events,Conditions,WindDirDegrees,DateUTC
12:53 AM,34.0,24.1,67,30.16,10.0,NNW,6.9,-,N/A,,Scattered Clouds,330,2013-04-24 05:53:00
1:53 AM,33.1,25.0,72,30.16,10.0,NNW,10.4,-,N/A,,Mostly Cloudy,330,2013-04-24 06:53:00
2:53 AM,30.9,25.0,79,30.16,10.0,NW,11.5,-,N/A,,Clear,320,2013-04-24 07:53:00
3:53 AM,30.0,24.1,79,30.16,10.0,NW,10.4,-,N/A,,Clear,310,2013-04-24 08:53:00
5:53 AM,27.0,21.9,81,30.18,10.0,WNW,8.1,-,N/A,,Clear,300,2013-04-24 10:53:00
6:53 AM,27.0,21.9,81,30.20,10.0,WNW,8.1,-,N/A,,Clear,300,2013-04-24 11:53:00
7:53 AM,30.0,23.0,75,30.22,10.0,WNW,10.4,-,N/A,,Clear,290,2013-04-24 12:53:00
8:53 AM,34.0,25.0,70,30.22,10.0,WNW,9.2,-,N/A,,Clear,290,2013-04-24 13:53:00
9:53 AM,39.0,27.0,62,30.21,10.0,WNW,5.8,-,N/A,,Clear,290,2013-04-24 14:53:00
10:53 AM,42.1,26.1,53,30.21,10.0,WNW,6.9,-,N/A,,Clear,300,2013-04-24 15:53:00
11:53 AM,44.1,24.1,45,30.20,10.0,West,10.4,17.3,N/A,,Clear,260,2013-04-24 16:53:00
12:53 PM,46.0,25.0,44,30.19,10.0,SW,10.4,-,N/A,,Clear,220,2013-04-24 17:53:00
1:53 PM,48.9,26.1,41,30.17,10.0,West,11.5,23.0,N/A,,Clear,260,2013-04-24 18:53:00
2:53 PM,50.0,25.0,38,30.16,10.0,West,15.0,19.6,N/A,,Clear,260,2013-04-24 19:53:00
3:53 PM,51.1,26.1,38,30.15,10.0,WSW,15.0,21.9,N/A,,Clear,240,2013-04-24 20:53:00
4:53 PM,52.0,28.0,40,30.15,10.0,WSW,18.4,21.9,N/A,,Clear,240,2013-04-24 21:53:00
5:53 PM,51.1,28.0,41,30.14,10.0,WSW,16.1,26.5,N/A,,Clear,240,2013-04-24 22:53:00
6:53 PM,51.1,28.9,43,30.12,10.0,SW,17.3,26.5,N/A,,Clear,230,2013-04-24 23:53:00
7:53 PM,46.9,30.0,52,30.11,10.0,SSW,11.5,-,N/A,,Clear,200,2013-04-25 00:53:00
8:53 PM,46.9,30.9,54,30.13,10.0,SW,5.8,-,N/A,,Overcast,220,2013-04-25 01:53:00
9:53 PM,45.0,37.9,76,30.16,10.0,WSW,11.5,-,0.02,,Overcast,250,2013-04-25 02:53:00
10:53 PM,44.1,37.9,79,30.19,10.0,NW,10.4,-,N/A,,Overcast,320,2013-04-25 03:53:00
11:53 PM,44.1,36.0,73,30.19,10.0,WNW,11.5,17.3,N/A,,Overcast,300,2013-04-25 04:53:00